CPR weather

Casper-Natrona County International Airport
Casper, Wyoming, United States

Public forecast

Using degrees Fahrenheit for public forecast. Weather courtesy of forecast.io.

Current aviation weather report (METAR) for Casper-Natrona County International Airport

Retrieved 2020/04/09 02:53 UTC (12 minutes ago):

KCPR 090253Z AUTO 09008KT 10SM CLR 04/M04 A3012 RMK AO2 SLP206 T00441039 53020

Aviation forecast (TAF) for Casper-Natrona County International Airport

Retrieved 2020-04-09 00:36 UTC (2 hours ago):

TAF KCPR 082333Z 0900/0924 36010KT P6SM FEW100 BKN200 FM090500 VRB04KT P6SM FEW250 FM091800 06010KT P6SM FEW250